This is the latest recevied weather packets stored in our database for station/object AI4Y. If no packets are shown the sender has not sent any weather packets the latest 10 day(s).
| Time | Temp. | Humidity | Pressure | Rain* | Wind** | Luminosity | Snow |
|---|---|---|---|---|---|---|---|
| 1778127616 | 16.67° C | 99% | 1010.9 hPa | 0.25 mm | - | 0 W/m² | - |
| 1778127016 | 16.67° C | 99% | 1011 hPa | 0.51 mm | - | 0 W/m² | - |
| 1778124617 | 17.78° C | 98% | 1012.5 hPa | 4.32 mm | - | 0 W/m² | - |
| 1778122857 | 18.33° C | 96% | 1012.7 hPa | 1.78 mm | - | 0 W/m² | - |
| 1778122217 | 18.89° C | 95% | 1012.2 hPa | 1.02 mm | - | 0 W/m² | - |
| 1778120418 | 18.89° C | 91% | 1011.7 hPa | 0 mm | - | 0 W/m² | - |
| 1778118618 | 18.89° C | 92% | 1011.3 hPa | 0 mm | - | 0 W/m² | - |
| 1778118038 | 18.89° C | 91% | 1011.1 hPa | 0 mm | - | 0 W/m² | - |
| 1778116219 | 18.89° C | 91% | 1011.5 hPa | 0 mm | - | 0 W/m² | - |
| 1778112616 | 20° C | 86% | 1010.8 hPa | 0 mm | - | 3 W/m² | - |
| 1778111416 | 21.11° C | 81% | 1011 hPa | 0 mm | - | 21 W/m² | - |
| 1778105418 | 23.33° C | 75% | 1011.1 hPa | 0 mm | - | 220 W/m² | - |
| 1778102436 | 21.67° C | 79% | 1010.8 hPa | 0 mm | - | 243 W/m² | - |
| 1778098217 | 21.11° C | 79% | 1011.1 hPa | 0 mm | - | 328 W/m² | - |
| 1778097617 | 21.11° C | 79% | 1011.2 hPa | 0 mm | - | 362 W/m² | - |
| 1778092829 | 18.33° C | 88% | 1011.6 hPa | 0.25 mm | - | 201 W/m² | - |
| 1778086217 | 17.78° C | 90% | 1013.2 hPa | 0.25 mm | - | 161 W/m² | - |
| 1778085637 | 17.78° C | 89% | 1013.3 hPa | 0 mm | - | 121 W/m² | - |
| 1778083218 | 17.78° C | 91% | 1012.6 hPa | 0 mm | - | 186 W/m² | - |
| 1778079035 | 16.67° C | 95% | 1012.5 hPa | 0.76 mm | - | 208 W/m² | - |
| 1778075416 | 16.11° C | 91% | 1012.8 hPa | 0.76 mm | - | 76 W/m² | - |
| 1778074236 | 16.11° C | 89% | 1012.2 hPa | 0.51 mm | - | 60 W/m² | - |
| 1778072437 | 16.67° C | 82% | 1012.5 hPa | 0 mm | - | 57 W/m² | - |
| 1778070618 | 16.67° C | 83% | 1011.9 hPa | 0 mm | - | 63 W/m² | - |
| 1778067018 | 16.11° C | 84% | 1011.7 hPa | 0.25 mm | - | 10 W/m² | - |
* Rain latest hour (hover to see other rain measurements)
** Current wind speed in m/s (hover to see current wind gust speed)